createdAt,value
2022-10-22T10:14:51.632Z,21.22
2022-10-22T10:15:55.727Z,21.17
2022-10-22T10:16:59.827Z,21.12
2022-10-22T10:18:03.926Z,21.24
2022-10-22T10:19:08.013Z,20.97
2022-10-22T10:20:12.421Z,20.79
2022-10-22T10:21:16.614Z,20.75
2022-10-22T10:22:20.711Z,20.93
2022-10-22T10:23:25.424Z,21
2022-10-22T10:24:29.652Z,20.8
2022-10-22T10:25:33.774Z,20.81
2022-10-22T10:26:37.891Z,20.88
2022-10-22T10:27:42.092Z,21.03
2022-10-22T10:28:46.187Z,21.33
2022-10-22T10:29:50.346Z,21.33
2022-10-22T10:30:54.422Z,21.26
2022-10-22T10:31:58.640Z,21.25
2022-10-22T10:33:02.733Z,21.35
2022-10-22T10:34:06.829Z,21.13
2022-10-22T10:35:10.902Z,20.94
2022-10-22T10:36:15.051Z,20.94
2022-10-22T10:37:19.169Z,20.78
2022-10-22T10:38:24.630Z,20.63
2022-10-22T10:39:32.981Z,20.92
2022-10-22T10:40:37.106Z,20.94
2022-10-22T10:41:41.201Z,20.87
2022-10-22T10:42:45.454Z,20.89
2022-10-22T10:43:49.510Z,20.73
2022-10-22T10:44:53.612Z,20.66
2022-10-22T10:45:57.702Z,20.63
2022-10-22T10:47:01.846Z,20.63
2022-10-22T10:48:05.952Z,20.65
2022-10-22T10:49:10.030Z,20.66
2022-10-22T10:50:14.114Z,20.62
2022-10-22T10:51:18.180Z,20.94
2022-10-22T10:52:22.252Z,21.02
2022-10-22T10:53:26.349Z,20.89
2022-10-22T10:54:30.504Z,20.71
2022-10-22T10:55:34.771Z,20.73
2022-10-22T10:56:39.142Z,20.69
2022-10-22T10:57:43.773Z,20.62
2022-10-22T10:58:47.997Z,20.56
2022-10-22T10:59:52.054Z,20.54
2022-10-22T11:00:56.158Z,20.53
2022-10-22T11:02:00.285Z,20.51
2022-10-22T11:03:04.439Z,20.46
2022-10-22T11:04:08.544Z,20.53
2022-10-22T11:05:12.638Z,20.58
2022-10-22T11:06:17.280Z,20.66
2022-10-22T11:07:34.429Z,20.66
2022-10-22T11:08:39.031Z,20.56
2022-10-22T11:09:43.374Z,20.49
2022-10-22T11:10:47.475Z,20.43
2022-10-22T11:11:51.614Z,20.48
2022-10-22T11:12:55.682Z,20.49
2022-10-22T11:13:59.750Z,20.67
2022-10-22T11:15:03.870Z,20.71
2022-10-22T11:16:07.944Z,20.9
2022-10-22T11:17:12.034Z,20.81
2022-10-22T11:18:16.130Z,20.87
2022-10-22T11:19:33.362Z,20.97
2022-10-22T11:21:01.351Z,20.8
2022-10-22T11:22:05.467Z,20.75
2022-10-22T11:23:24.895Z,20.62
2022-10-22T11:24:29.393Z,20.5
2022-10-22T11:25:33.493Z,20.51
2022-10-22T11:26:37.615Z,20.51
2022-10-22T11:27:41.915Z,20.51
2022-10-22T11:28:47.168Z,20.54
2022-10-22T11:29:51.316Z,20.58
2022-10-22T11:30:55.409Z,20.27
2022-10-22T11:31:59.495Z,20.69
2022-10-22T11:33:03.598Z,20.66
2022-10-22T11:34:28.825Z,20.64
2022-10-22T11:35:37.670Z,20.67
2022-10-22T11:36:41.777Z,20.65
2022-10-22T11:37:45.864Z,20.68
2022-10-22T11:38:49.985Z,20.74
2022-10-22T11:39:54.074Z,20.73
2022-10-22T11:40:58.256Z,20.66
2022-10-22T11:42:02.428Z,20.7
2022-10-22T11:43:06.513Z,20.62
2022-10-22T11:44:10.584Z,20.66
2022-10-22T11:45:14.735Z,20.71
2022-10-22T11:46:18.835Z,20.7
2022-10-22T11:47:22.929Z,20.7
2022-10-22T11:48:27.040Z,20.65
2022-10-22T11:49:31.121Z,20.65
2022-10-22T11:50:35.212Z,20.68
2022-10-22T11:51:39.289Z,20.7
2022-10-22T11:52:43.382Z,20.35
2022-10-22T11:53:47.535Z,20.55
2022-10-22T11:54:51.662Z,20.64
2022-10-22T11:55:55.782Z,20.71
2022-10-22T11:56:59.935Z,20.68
2022-10-22T11:58:04.061Z,20.67
2022-10-22T11:59:08.208Z,20.56
2022-10-22T12:00:12.298Z,20.55
2022-10-22T12:01:16.390Z,20.51
2022-10-22T12:02:20.472Z,20.5
2022-10-22T12:03:24.597Z,20.49
2022-10-22T12:04:28.709Z,20.46
2022-10-22T12:05:32.973Z,20.5
2022-10-22T12:06:39.892Z,20.5
2022-10-22T12:07:47.010Z,20.51
2022-10-22T12:08:51.278Z,20.47
2022-10-22T12:10:01.547Z,20.51
2022-10-22T12:11:05.649Z,20.55
2022-10-22T12:12:09.766Z,20.5
2022-10-22T12:13:13.886Z,20.52
2022-10-22T12:14:48.616Z,20.48
2022-10-22T12:15:52.857Z,20.47
2022-10-22T12:17:00.178Z,20.45
2022-10-22T12:18:07.197Z,20.46
2022-10-22T12:19:11.397Z,20.48
2022-10-22T12:20:15.575Z,20.44
2022-10-22T12:21:19.664Z,20.48
2022-10-22T12:22:23.754Z,20.43
2022-10-22T12:23:27.856Z,20.45
2022-10-22T12:24:35.020Z,20.44
2022-10-22T12:25:41.138Z,20.44
2022-10-22T12:26:45.221Z,20.44
2022-10-22T12:27:51.935Z,20.41
2022-10-22T12:28:56.041Z,20.45
2022-10-22T12:30:00.133Z,20.45
2022-10-22T12:31:06.089Z,20.04
2022-10-22T12:32:12.612Z,20.43
2022-10-22T12:33:16.697Z,20.43
2022-10-22T12:34:20.841Z,20.4
2022-10-22T12:35:24.946Z,20.44
2022-10-22T12:36:30.843Z,20.43
2022-10-22T12:37:34.946Z,20.43
2022-10-22T12:38:39.022Z,20.42
2022-10-22T12:39:43.135Z,20.38
2022-10-22T12:40:48.388Z,20.42
2022-10-22T12:41:53.365Z,20.41
2022-10-22T12:42:57.511Z,20.41
2022-10-22T12:44:02.066Z,20.4
2022-10-22T12:45:06.178Z,20.36
2022-10-22T12:46:10.268Z,20.39
2022-10-22T12:47:14.348Z,20.38
2022-10-22T12:48:18.426Z,20.4
2022-10-22T12:49:22.537Z,20.46
2022-10-22T12:50:26.669Z,20.49
2022-10-22T12:52:34.901Z,20.59
2022-10-22T12:53:44.711Z,20.6
2022-10-22T12:54:48.789Z,20.58
2022-10-22T12:55:52.878Z,20.51
2022-10-22T12:56:56.990Z,20.51
2022-10-22T12:58:01.106Z,20.5
2022-10-22T12:59:05.201Z,20.5
2022-10-22T13:00:09.274Z,20.49
2022-10-22T13:01:13.560Z,20.47
2022-10-22T13:02:17.853Z,20.5
2022-10-22T13:03:21.933Z,20.5
2022-10-22T13:04:26.065Z,20.5
2022-10-22T13:05:30.159Z,20.51
2022-10-22T13:06:34.263Z,20.52
2022-10-22T13:07:38.345Z,20.5
2022-10-22T13:08:42.461Z,20.46
2022-10-22T13:09:46.674Z,20.45
2022-10-22T13:10:50.779Z,20.48
2022-10-22T13:11:54.856Z,20.46
2022-10-22T13:12:58.959Z,20.44
2022-10-22T13:14:03.035Z,20.39
2022-10-22T13:15:07.272Z,20.4
2022-10-22T13:16:11.395Z,20.41
2022-10-22T13:17:15.472Z,20.41
2022-10-22T13:18:19.599Z,20.42
2022-10-22T13:19:23.682Z,20.42
2022-10-22T13:20:27.858Z,20.38
2022-10-22T13:21:36.822Z,20.38
2022-10-22T13:22:41.191Z,20.39
2022-10-22T13:23:45.295Z,20.42
2022-10-22T13:24:49.718Z,20.38
2022-10-22T13:25:54.058Z,20.43
2022-10-22T13:26:58.153Z,20.42
2022-10-22T13:28:02.241Z,20.42
2022-10-22T13:29:06.321Z,20.42
2022-10-22T13:30:10.437Z,20.39
2022-10-22T13:31:14.513Z,19.98
2022-10-22T13:32:18.623Z,20.38
2022-10-22T13:33:22.734Z,20.39
2022-10-22T13:34:26.809Z,20.42
2022-10-22T13:35:30.904Z,20.43
2022-10-22T13:36:34.990Z,20.39
2022-10-22T13:37:39.307Z,20.41
2022-10-22T13:38:44.464Z,20.41
2022-10-22T13:39:48.572Z,20.39
2022-10-22T13:40:52.676Z,20.42
2022-10-22T13:41:56.887Z,20.43
2022-10-22T13:43:01.000Z,20.44
2022-10-22T13:44:05.136Z,20.45
2022-10-22T13:45:11.747Z,20.43
2022-10-22T13:46:15.862Z,20.4
2022-10-22T13:47:22.710Z,20.42
2022-10-22T13:48:26.810Z,20.38
2022-10-22T13:49:30.917Z,20.38
2022-10-22T13:50:35.043Z,20.42
2022-10-22T13:51:39.156Z,20.42
2022-10-22T13:52:43.594Z,20.43
2022-10-22T13:53:48.059Z,20.36
2022-10-22T13:54:52.214Z,20.41
2022-10-22T13:55:56.344Z,20.75
2022-10-22T13:57:00.454Z,20.87
2022-10-22T13:58:04.650Z,20.73
2022-10-22T13:59:08.955Z,20.61
2022-10-22T14:00:13.080Z,20.65
2022-10-22T14:01:17.232Z,20.63
2022-10-22T14:02:21.503Z,20.65
2022-10-22T14:03:25.626Z,20.68
2022-10-22T14:04:29.752Z,20.77
2022-10-22T14:05:33.857Z,20.81
2022-10-22T14:06:37.966Z,20.68
2022-10-22T14:07:42.278Z,20.74
2022-10-22T14:08:47.208Z,20.77
2022-10-22T14:09:51.524Z,20.76
2022-10-22T14:10:55.610Z,20.68
2022-10-22T14:11:59.740Z,20.65
2022-10-22T14:13:03.845Z,20.59
2022-10-22T14:14:07.970Z,20.6
2022-10-22T14:15:12.190Z,20.56
2022-10-22T14:16:16.289Z,20.58
2022-10-22T14:17:20.380Z,20.62
2022-10-22T14:18:24.484Z,20.63
2022-10-22T14:19:28.639Z,20.64
2022-10-22T14:20:32.776Z,20.68
2022-10-22T14:21:36.941Z,20.57
2022-10-22T14:22:41.123Z,20.71
2022-10-22T14:23:45.254Z,20.81
2022-10-22T14:24:49.371Z,20.88
2022-10-22T14:25:53.456Z,20.88
2022-10-22T14:26:57.561Z,20.82
2022-10-22T14:28:01.637Z,20.85
2022-10-22T14:29:10.066Z,20.9
2022-10-22T14:30:15.286Z,20.84
2022-10-22T14:31:19.391Z,20.78
2022-10-22T14:32:23.454Z,20.84
2022-10-22T14:33:30.422Z,20.72
2022-10-22T14:34:35.811Z,20.67
2022-10-22T14:35:39.912Z,20.66
2022-10-22T14:36:44.308Z,20.64
2022-10-22T14:37:48.477Z,20.65
2022-10-22T14:38:52.611Z,20.74
2022-10-22T14:41:00.849Z,20.69
2022-10-22T14:42:04.953Z,20.71
2022-10-22T14:43:09.036Z,20.79
2022-10-22T14:44:13.123Z,20.86
2022-10-22T14:45:17.776Z,20.86
2022-10-22T14:46:21.857Z,20.86
2022-10-22T14:47:25.929Z,20.82
2022-10-22T14:48:30.043Z,20.81
2022-10-22T14:49:34.126Z,20.76
2022-10-22T14:50:38.206Z,20.65
2022-10-22T14:51:42.309Z,20.62
2022-10-22T14:52:46.367Z,20.72
2022-10-22T14:53:50.503Z,20.67
2022-10-22T14:54:54.568Z,20.64
2022-10-22T14:55:58.674Z,20.61
2022-10-22T14:57:02.810Z,20.6
2022-10-22T14:58:06.869Z,20.55
2022-10-22T14:59:11.241Z,20.57
2022-10-22T15:00:15.305Z,20.54
2022-10-22T15:01:19.417Z,20.52
2022-10-22T15:02:23.546Z,20.49
2022-10-22T15:03:28.041Z,20.48
2022-10-22T15:04:32.122Z,20.51
2022-10-22T15:05:36.201Z,20.5
2022-10-22T15:06:40.275Z,20.46
2022-10-22T15:07:44.542Z,20.5
2022-10-22T15:08:48.831Z,20.46
2022-10-22T15:09:53.183Z,20.45
2022-10-22T15:10:57.258Z,20.45
2022-10-22T15:12:01.359Z,20.48
2022-10-22T15:13:05.576Z,20.49
2022-10-22T15:14:09.931Z,20.48
2022-10-22T15:15:14.011Z,20.48
2022-10-22T15:16:24.997Z,20.49
2022-10-22T15:17:29.065Z,20.5
2022-10-22T15:18:33.175Z,20.49
2022-10-22T15:19:42.010Z,20.49
2022-10-22T15:20:49.419Z,20.49
2022-10-22T15:21:53.610Z,20.45
2022-10-22T15:22:57.898Z,20.49
2022-10-22T15:24:02.011Z,20.49
2022-10-22T15:25:06.099Z,20.49
2022-10-22T15:26:10.215Z,20.46
2022-10-22T15:27:14.357Z,20.5
2022-10-22T15:28:18.500Z,20.46
2022-10-22T15:29:22.568Z,20.49
2022-10-22T15:30:26.805Z,20.48
2022-10-22T15:31:32.696Z,20.45
2022-10-22T15:32:36.807Z,20.48
2022-10-22T15:33:41.350Z,20.48
2022-10-22T15:34:46.275Z,20.49
2022-10-22T15:35:50.522Z,20.5
2022-10-22T15:36:57.445Z,20.53
2022-10-22T15:38:01.618Z,20.55
2022-10-22T15:39:05.704Z,20.54
2022-10-22T15:40:09.817Z,20.53
2022-10-22T15:41:13.903Z,20.49
2022-10-22T15:42:18.000Z,20.5
2022-10-22T15:43:22.102Z,20.54
2022-10-22T15:44:26.183Z,20.53
2022-10-22T15:45:30.264Z,20.54
2022-10-22T15:46:34.661Z,20.54
2022-10-22T15:47:40.047Z,20.52
2022-10-22T15:48:48.383Z,20.21
2022-10-22T15:49:52.456Z,20.55
2022-10-22T15:50:56.629Z,20.46
2022-10-22T15:52:00.755Z,20.65
2022-10-22T15:53:04.852Z,20.67
2022-10-22T15:54:10.084Z,20.78
2022-10-22T15:55:14.377Z,20.76
2022-10-22T15:56:18.503Z,20.7
2022-10-22T15:57:22.603Z,20.83
2022-10-22T15:58:26.691Z,20.8
2022-10-22T15:59:30.931Z,20.71
2022-10-22T16:00:35.382Z,20.66
2022-10-22T16:01:39.745Z,20.58
2022-10-22T16:02:43.909Z,20.53
2022-10-22T16:03:48.277Z,20.49
2022-10-22T16:04:52.377Z,20.48
2022-10-22T16:05:56.462Z,20.44
2022-10-22T16:07:00.573Z,20.49
2022-10-22T16:08:04.698Z,20.49
2022-10-22T16:09:08.870Z,20.54
2022-10-22T16:10:13.307Z,20.56
2022-10-22T16:11:17.435Z,20.62
2022-10-22T16:12:21.535Z,20.68
2022-10-22T16:13:25.654Z,20.7
2022-10-22T16:14:29.784Z,20.74
2022-10-22T16:15:33.903Z,20.81
2022-10-22T16:16:38.042Z,20.85
2022-10-22T16:17:44.963Z,20.83
2022-10-22T16:18:49.165Z,20.88
2022-10-22T16:19:53.273Z,20.9
2022-10-22T16:21:00.280Z,20.53
2022-10-22T16:22:04.400Z,20.89
2022-10-22T16:23:08.479Z,20.89
2022-10-22T16:24:12.588Z,20.87
2022-10-22T16:25:16.654Z,20.84
2022-10-22T16:26:20.744Z,20.83
2022-10-22T16:27:24.901Z,20.87
2022-10-22T16:29:37.293Z,20.85
2022-10-22T16:30:41.381Z,20.8
2022-10-22T16:31:48.229Z,20.8
2022-10-22T16:32:52.384Z,20.82
2022-10-22T16:33:56.454Z,20.84
2022-10-22T16:35:00.578Z,20.88
2022-10-22T16:36:04.715Z,20.91
2022-10-22T16:37:08.817Z,20.99
2022-10-22T16:38:13.353Z,20.98
2022-10-22T16:39:19.156Z,21.02
2022-10-22T16:40:23.270Z,21.09
2022-10-22T16:41:27.337Z,21.12
2022-10-22T16:42:31.413Z,21.15
2022-10-22T16:43:35.507Z,21.17
2022-10-22T16:44:39.569Z,21.15
2022-10-22T16:45:43.631Z,21.14
2022-10-22T16:46:47.734Z,21.08
2022-10-22T16:47:51.836Z,21.04
2022-10-22T16:48:55.944Z,21
2022-10-22T16:50:00.049Z,21
2022-10-22T16:51:04.194Z,20.99
2022-10-22T16:52:08.269Z,20.75
2022-10-22T16:53:12.430Z,21
2022-10-22T16:54:16.556Z,21.02
2022-10-22T16:55:20.660Z,21.09
2022-10-22T16:56:24.753Z,21.08
2022-10-22T16:57:28.863Z,21.3
2022-10-22T16:58:32.956Z,21.4
2022-10-22T16:59:37.037Z,21.45
2022-10-22T17:00:41.196Z,21.55
2022-10-22T17:01:45.438Z,21.57
2022-10-22T17:02:49.508Z,21.6
2022-10-22T17:03:53.626Z,21.6
2022-10-22T17:04:57.720Z,21.56
2022-10-22T17:06:01.816Z,21.57
2022-10-22T17:07:05.919Z,21.49
2022-10-22T17:08:09.994Z,21.47
2022-10-22T17:09:14.220Z,21.46
2022-10-22T17:10:18.639Z,21.45
2022-10-22T17:11:23.020Z,21.42
2022-10-22T17:12:27.090Z,21.37
2022-10-22T17:13:31.177Z,21.37
2022-10-22T17:14:35.324Z,21.39
2022-10-22T17:15:39.653Z,21.36
2022-10-22T17:16:43.743Z,21.35
2022-10-22T17:17:47.845Z,21.29
2022-10-22T17:18:52.065Z,21.27
2022-10-22T17:19:56.175Z,21.31
2022-10-22T17:21:03.044Z,21.31
2022-10-22T17:22:07.115Z,21.34
2022-10-22T17:23:11.212Z,21.41
2022-10-22T17:24:15.323Z,21.45
2022-10-22T17:25:19.640Z,21.43
2022-10-22T17:26:23.938Z,21.45
2022-10-22T17:27:28.216Z,21.55
2022-10-22T17:28:32.739Z,21.57
2022-10-22T17:29:37.033Z,21.62
2022-10-22T17:30:41.207Z,21.65
2022-10-22T17:31:45.287Z,21.7
2022-10-22T17:32:49.423Z,21.8
2022-10-22T17:33:53.518Z,21.94
2022-10-22T17:34:57.645Z,22
2022-10-22T17:36:01.779Z,21.93
2022-10-22T17:37:05.930Z,22.02
2022-10-22T17:38:10.201Z,22.04
2022-10-22T17:39:14.313Z,22.08
2022-10-22T17:40:18.410Z,22.11
2022-10-22T17:41:24.058Z,22.16
2022-10-22T17:42:28.137Z,22.19
2022-10-22T17:43:32.404Z,22.15
2022-10-22T17:44:36.624Z,22.19
2022-10-22T17:45:40.704Z,22.2
2022-10-22T17:46:44.804Z,22.24
2022-10-22T17:47:48.884Z,22.25
2022-10-22T17:48:52.975Z,22.31
2022-10-22T17:49:58.763Z,22.27
2022-10-22T17:51:02.834Z,22.24
2022-10-22T17:52:06.909Z,22.21
2022-10-22T17:53:11.024Z,22.2
2022-10-22T17:54:15.113Z,22.15
2022-10-22T17:55:19.212Z,22.14
2022-10-22T17:56:23.301Z,22.15
2022-10-22T17:57:27.442Z,22.18
2022-10-22T17:58:31.542Z,22.22
2022-10-22T17:59:35.648Z,22.28
2022-10-22T18:00:39.815Z,22.22
2022-10-22T18:01:44.205Z,22.23
2022-10-22T18:02:48.397Z,22.2
2022-10-22T18:03:52.505Z,22.26
2022-10-22T18:04:56.596Z,22.2
2022-10-22T18:06:00.706Z,22.25
2022-10-22T18:07:04.799Z,22.26
2022-10-22T18:08:08.952Z,22.27
2022-10-22T18:09:13.332Z,22.28
2022-10-22T18:10:22.027Z,22.3
2022-10-22T18:11:26.118Z,22.19
2022-10-22T18:12:30.217Z,22.12
2022-10-22T18:13:34.329Z,21.84
2022-10-22T18:14:38.415Z,22
2022-10-22T18:15:42.502Z,21.95
2022-10-22T18:16:46.586Z,21.91
2022-10-22T18:17:50.719Z,21.95
2022-10-22T18:18:54.807Z,21.91
2022-10-22T18:19:58.901Z,21.87
2022-10-22T18:21:02.998Z,21.84
2022-10-22T18:22:07.092Z,21.8
2022-10-22T18:23:11.166Z,21.77
2022-10-22T18:24:15.248Z,21.76
2022-10-22T18:25:19.335Z,21.72
2022-10-22T18:26:24.423Z,21.76
2022-10-22T18:27:30.913Z,21.78
2022-10-22T18:28:35.036Z,21.77
2022-10-22T18:29:39.143Z,21.76
2022-10-22T18:30:43.306Z,21.73
2022-10-22T18:31:47.583Z,21.71
2022-10-22T18:32:53.209Z,21.75
2022-10-22T18:33:57.276Z,21.74
2022-10-22T18:35:01.413Z,21.74
2022-10-22T18:36:05.522Z,21.75
2022-10-22T18:37:09.627Z,21.75
2022-10-22T18:38:13.798Z,21.74
2022-10-22T18:39:17.887Z,21.72
2022-10-22T18:40:21.996Z,21.68
2022-10-22T18:41:26.158Z,21.7
2022-10-22T18:42:31.865Z,21.69
2022-10-22T18:43:42.190Z,21.65
2022-10-22T18:44:46.258Z,21.63
2022-10-22T18:45:50.369Z,21.65
2022-10-22T18:46:54.499Z,21.64
2022-10-22T18:47:59.015Z,21.59
2022-10-22T18:49:03.119Z,21.61
2022-10-22T18:50:07.231Z,21.6
2022-10-22T18:51:11.351Z,21.64
2022-10-22T18:52:15.454Z,21.66
2022-10-22T18:53:19.563Z,21.41
2022-10-22T18:54:24.538Z,21.69
2022-10-22T18:55:28.932Z,21.66
2022-10-22T18:56:33.062Z,21.7
2022-10-22T18:57:37.174Z,21.68
2022-10-22T18:58:43.759Z,21.67
2022-10-22T18:59:48.009Z,21.66
2022-10-22T19:00:52.193Z,21.64
2022-10-22T19:01:59.027Z,21.61
2022-10-22T19:03:03.214Z,21.64
2022-10-22T19:04:07.324Z,21.6
2022-10-22T19:05:11.427Z,21.62
2022-10-22T19:06:15.553Z,21.32
2022-10-22T19:07:19.638Z,20.92
2022-10-22T19:08:23.712Z,21.65
2022-10-22T19:09:27.827Z,21.6
2022-10-22T19:10:31.939Z,21.63
2022-10-22T19:11:36.065Z,21.63
2022-10-22T19:12:40.257Z,21.62
2022-10-22T19:13:44.343Z,21.66
2022-10-22T19:14:48.479Z,21.67
2022-10-22T19:15:52.583Z,21.67
2022-10-22T19:16:56.729Z,21.57
2022-10-22T19:18:00.841Z,21.67
2022-10-22T19:19:04.940Z,21.47
2022-10-22T19:20:09.035Z,21.63
2022-10-22T19:21:13.143Z,21.64
2022-10-22T19:22:17.250Z,21.65
2022-10-22T19:23:21.364Z,21.64
2022-10-22T19:24:25.448Z,21.55
2022-10-22T19:25:29.526Z,21.56
2022-10-22T19:26:33.606Z,21.6
2022-10-22T19:27:37.706Z,21.56
2022-10-22T19:28:42.872Z,21.6
2022-10-22T19:29:46.985Z,21.58
2022-10-22T19:30:51.099Z,21.58
2022-10-22T19:31:55.233Z,21.58
2022-10-22T19:32:59.487Z,21.57
2022-10-22T19:34:03.582Z,21.54
2022-10-22T19:35:07.676Z,21.52
2022-10-22T19:36:11.771Z,21.53
2022-10-22T19:37:15.874Z,21.53
2022-10-22T19:38:19.965Z,21.54
2022-10-22T19:39:24.044Z,21.58
2022-10-22T19:40:28.174Z,21.55
2022-10-22T19:41:32.296Z,21.57
2022-10-22T19:42:36.389Z,21.59
2022-10-22T19:43:40.500Z,21.58
2022-10-22T19:44:44.629Z,21.6
2022-10-22T19:45:48.725Z,21.58
2022-10-22T19:46:52.826Z,21.58
2022-10-22T19:47:56.920Z,21.56
2022-10-22T19:49:01.007Z,21.59
2022-10-22T19:50:05.129Z,21.54
2022-10-22T19:51:09.230Z,21.55
2022-10-22T19:52:13.313Z,21.51
2022-10-22T19:53:17.421Z,21.53
2022-10-22T19:54:21.540Z,21.49
2022-10-22T19:55:25.623Z,21.51
2022-10-22T19:56:29.704Z,21.5
2022-10-22T19:57:33.825Z,21.47
2022-10-22T19:58:37.915Z,21.5
2022-10-22T19:59:41.996Z,21.49
2022-10-22T20:00:46.138Z,21.49
2022-10-22T20:01:50.349Z,21.57
2022-10-22T20:02:54.450Z,21.57
2022-10-22T20:03:58.609Z,21.57
2022-10-22T20:05:03.041Z,21.59
2022-10-22T20:06:07.229Z,21.55
2022-10-22T20:07:11.318Z,21.56
2022-10-22T20:08:15.413Z,21.54
2022-10-22T20:09:19.553Z,21.57
2022-10-22T20:10:23.894Z,21.56
2022-10-22T20:11:27.975Z,21.49
2022-10-22T20:12:32.034Z,21.55
2022-10-22T20:13:36.191Z,21.54
2022-10-22T20:14:40.363Z,21.53
2022-10-22T20:15:44.490Z,21.47
2022-10-22T20:16:48.584Z,21.46
2022-10-22T20:17:52.669Z,21.5
2022-10-22T20:18:56.782Z,21.45
2022-10-22T20:20:00.913Z,21.51
2022-10-22T20:21:05.086Z,21.51
2022-10-22T20:22:09.194Z,21.56
2022-10-22T20:23:20.919Z,21.58
2022-10-22T20:24:25.026Z,21.56
2022-10-22T20:25:29.123Z,21.59
2022-10-22T20:26:33.221Z,21.55
2022-10-22T20:27:37.336Z,21.59
2022-10-22T20:28:41.411Z,21.64
2022-10-22T20:29:45.491Z,21.64
2022-10-22T20:30:49.607Z,21.65
2022-10-22T20:31:53.753Z,21.61
2022-10-22T20:32:57.833Z,21.63
2022-10-22T20:34:01.938Z,21.64
2022-10-22T20:35:06.090Z,21.6
2022-10-22T20:36:10.201Z,21.63
2022-10-22T20:37:14.298Z,21.61
2022-10-22T20:38:18.479Z,21.6
2022-10-22T20:39:22.594Z,21.59
2022-10-22T20:40:26.659Z,21.58
2022-10-22T20:41:30.820Z,21.55
2022-10-22T20:42:34.948Z,21.6
2022-10-22T20:43:39.061Z,21.63
2022-10-22T20:44:43.153Z,21.62
2022-10-22T20:45:47.223Z,21.66
2022-10-22T20:46:51.354Z,21.66
2022-10-22T20:48:01.815Z,21.64
2022-10-22T20:49:07.092Z,21.67
2022-10-22T20:50:11.164Z,21.69
2022-10-22T20:51:15.313Z,21.69
2022-10-22T20:52:19.387Z,21.68
2022-10-22T20:53:23.453Z,21.68
2022-10-22T20:54:27.550Z,21.69
2022-10-22T20:55:31.639Z,21.67
2022-10-22T20:56:35.722Z,21.63
2022-10-22T20:57:40.143Z,21.63
2022-10-22T20:58:45.178Z,21.61
2022-10-22T20:59:49.256Z,21.63
2022-10-22T21:00:53.435Z,21.64
2022-10-22T21:01:57.773Z,21.61
2022-10-22T21:03:01.862Z,21.57
2022-10-22T21:04:05.988Z,21.6
2022-10-22T21:05:10.092Z,21.65
2022-10-22T21:06:14.197Z,21.65
2022-10-22T21:07:18.280Z,21.66
2022-10-22T21:08:22.353Z,21.65
2022-10-22T21:09:26.471Z,21.69
2022-10-22T21:10:32.330Z,21.62
2022-10-22T21:11:36.778Z,21.69
2022-10-22T21:12:41.051Z,21.65
2022-10-22T21:13:46.188Z,21.65
2022-10-22T21:14:50.369Z,21.67
2022-10-22T21:15:54.440Z,21.66
2022-10-22T21:16:58.534Z,21.65
2022-10-22T21:18:02.672Z,21.62
2022-10-22T21:19:06.761Z,21.64
2022-10-22T21:21:15.015Z,21.61
2022-10-22T21:22:19.164Z,21.64
2022-10-22T21:23:23.266Z,21.6
2022-10-22T21:24:27.369Z,21.64
2022-10-22T21:25:31.492Z,21.63
2022-10-22T21:26:35.601Z,21.65
2022-10-22T21:27:39.700Z,21.67
2022-10-22T21:28:43.783Z,21.69
2022-10-22T21:29:47.857Z,21.62
2022-10-22T21:30:51.998Z,21.74
2022-10-22T21:31:56.069Z,21.75
2022-10-22T21:33:00.142Z,21.71
2022-10-22T21:34:04.214Z,21.77
2022-10-22T21:35:08.272Z,21.78
2022-10-22T21:36:12.378Z,21.74
2022-10-22T21:37:18.393Z,21.75
2022-10-22T21:38:22.489Z,21.6
2022-10-22T21:39:26.596Z,21.78
2022-10-22T21:40:30.773Z,21.76
2022-10-22T21:41:34.875Z,21.67
2022-10-22T21:42:38.940Z,21.75
2022-10-22T21:43:43.054Z,21.73
2022-10-22T21:44:47.118Z,21.68
2022-10-22T21:45:51.204Z,21.71
2022-10-22T21:46:55.321Z,21.7
2022-10-22T21:47:59.435Z,21.67
2022-10-22T21:49:03.535Z,21.73
2022-10-22T21:50:07.642Z,21.74
2022-10-22T21:51:11.738Z,21.74
2022-10-22T21:52:15.847Z,21.77
2022-10-22T21:53:19.902Z,21.78
2022-10-22T21:54:23.979Z,21.77
2022-10-22T21:55:28.100Z,21.78
2022-10-22T21:56:32.214Z,21.77
2022-10-22T21:57:36.290Z,21.77
2022-10-22T21:58:40.410Z,21.71
2022-10-22T21:59:44.502Z,21.71
2022-10-22T22:00:48.678Z,21.73
2022-10-22T22:01:53.020Z,21.69
2022-10-22T22:02:57.139Z,21.71
2022-10-22T22:04:01.314Z,21.7
2022-10-22T22:05:05.432Z,21.67
2022-10-22T22:06:09.494Z,21.68
2022-10-22T22:07:13.831Z,21.63
2022-10-22T22:08:17.946Z,21.66
2022-10-22T22:09:22.143Z,21.65
2022-10-22T22:10:26.402Z,21.65
2022-10-22T22:11:30.508Z,21.6
2022-10-22T22:12:34.569Z,21.64
2022-10-22T22:13:38.676Z,21.62
2022-10-22T22:14:42.787Z,21.61
2022-10-22T22:15:46.901Z,21.61
2022-10-22T22:16:50.978Z,21.56
2022-10-22T22:17:55.071Z,21.58
2022-10-22T22:18:59.234Z,21.58
2022-10-22T22:20:03.600Z,21.57
2022-10-22T22:21:07.766Z,21.55
2022-10-22T22:22:11.851Z,21.5
2022-10-22T22:23:15.971Z,21.55
2022-10-22T22:24:20.060Z,21.54
2022-10-22T22:25:24.157Z,21.51
2022-10-22T22:26:28.680Z,21.54
2022-10-22T22:27:33.902Z,21.49
2022-10-22T22:28:38.038Z,21.5
2022-10-22T22:29:42.174Z,21.49
2022-10-22T22:30:46.255Z,21.49
2022-10-22T22:31:50.338Z,21.45
2022-10-22T22:32:54.448Z,21.48
2022-10-22T22:33:58.561Z,21.43
2022-10-22T22:35:02.671Z,21.46
2022-10-22T22:36:06.753Z,21.41
2022-10-22T22:37:10.864Z,21.45
2022-10-22T22:38:14.925Z,21.4
2022-10-22T22:39:18.979Z,21.45
2022-10-22T22:40:23.081Z,21.44
2022-10-22T22:41:27.145Z,21.39
2022-10-22T22:42:31.202Z,21.42
2022-10-22T22:43:35.301Z,21.41
2022-10-22T22:44:39.370Z,21.4
2022-10-22T22:45:43.485Z,21.34
2022-10-22T22:46:47.562Z,21.36
2022-10-22T22:47:51.646Z,21.31
2022-10-22T22:48:55.731Z,21.34
2022-10-22T22:49:59.817Z,21.33
2022-10-22T22:51:03.926Z,21.32
2022-10-22T22:52:08.068Z,21.32
2022-10-22T22:53:12.358Z,21.29
2022-10-22T22:54:16.432Z,21.3
2022-10-22T22:55:20.509Z,21.29
2022-10-22T22:56:24.607Z,21.29
2022-10-22T22:57:28.702Z,21.29
2022-10-22T22:58:32.782Z,21.25
2022-10-22T22:59:36.875Z,21.28
2022-10-22T23:01:45.088Z,21.27
2022-10-22T23:02:49.330Z,21.23
2022-10-22T23:03:53.396Z,21.27
2022-10-22T23:04:57.461Z,21.28
2022-10-22T23:06:01.526Z,21.36
2022-10-22T23:07:05.613Z,21.4
2022-10-22T23:08:09.763Z,21.36
2022-10-22T23:09:14.168Z,20.99
2022-10-22T23:10:18.788Z,21.39
2022-10-22T23:11:22.868Z,21.36
2022-10-22T23:12:26.958Z,21.34
2022-10-22T23:13:31.033Z,21.27
2022-10-22T23:14:35.112Z,21.3
2022-10-22T23:15:39.240Z,21.3
2022-10-22T23:16:43.335Z,21.24
2022-10-22T23:17:47.408Z,21.25
2022-10-22T23:18:51.509Z,21.22
2022-10-22T23:19:55.580Z,21.27
2022-10-22T23:20:59.661Z,21.25
2022-10-22T23:22:03.754Z,21.2
2022-10-22T23:23:07.854Z,21.19
2022-10-22T23:24:11.921Z,21.19
2022-10-22T23:25:16.096Z,21.14
2022-10-22T23:26:20.160Z,21.2
2022-10-22T23:27:24.231Z,21.19
2022-10-22T23:28:28.334Z,21.19
2022-10-22T23:29:32.434Z,21.19
2022-10-22T23:30:36.500Z,21.16
2022-10-22T23:31:40.662Z,21.31
2022-10-22T23:32:44.739Z,21.47
2022-10-22T23:33:48.824Z,21.67
2022-10-22T23:34:52.920Z,21.62
2022-10-22T23:35:57.057Z,21.71
2022-10-22T23:37:01.150Z,21.59
2022-10-22T23:38:05.229Z,21.66
2022-10-22T23:39:09.376Z,21.68
2022-10-22T23:40:13.453Z,21.76
2022-10-22T23:41:17.615Z,21.63
2022-10-22T23:42:21.682Z,21.54
2022-10-22T23:43:25.772Z,21.54
2022-10-22T23:44:29.877Z,21.62
2022-10-22T23:45:33.958Z,21.58
2022-10-22T23:46:38.049Z,21.52
2022-10-22T23:47:42.467Z,21.59
2022-10-22T23:48:47.455Z,21.66
2022-10-22T23:49:51.546Z,21.5
2022-10-22T23:50:55.617Z,21.47
2022-10-22T23:51:59.746Z,21.48
2022-10-22T23:53:03.820Z,21.47
2022-10-22T23:54:08.219Z,21.4
2022-10-22T23:55:12.334Z,21.35
2022-10-22T23:56:16.429Z,21.27
2022-10-22T23:57:20.561Z,21.29
2022-10-22T23:58:24.745Z,21.43
2022-10-22T23:59:28.857Z,21.5
